Time;durP1;ratioP1;P1;durP2;ratioP2;P2;SDS_P1;SDS_P2;PMS_P1;PMS_P2;Temp;Humidity;BMP_temperature;BMP_pressure;BME280_temperature;BME280_humidity;BME280_pressure;Samples;Min_cycle;Max_cycle;Signal;HPM_P1;HPM_P2
2021/09/23 00:01:27;;;;;;;26.60;4.70;;;;;;;;;;4915462;28;20173;-79
2021/09/23 00:04:15;;;;;;;27.33;5.30;;;;;;;;;;4892593;29;20055;-78
2021/09/23 00:06:42;;;;;;;24.63;4.38;;;;;;;;;;4903857;28;20145;-78
2021/09/23 00:09:09;;;;;;;30.15;4.85;;;;;;;;;;4916296;28;20038;-78
2021/09/23 00:11:59;;;;;;;26.55;4.72;;;;;;;;;;4961017;28;20109;-78
2021/09/23 00:14:45;;;;;;;21.70;4.40;;;;;;;;;;4918171;28;20043;-78
2021/09/23 00:17:12;;;;;;;33.22;5.88;;;;;;;;;;4925354;28;20647;-78
2021/09/23 00:19:39;;;;;;;29.23;4.55;;;;;;;;;;4938802;28;20090;-78
2021/09/23 00:22:07;;;;;;;28.45;5.28;;;;;;;;;;4915202;28;20051;-78
2021/09/23 00:24:37;;;;;;;28.05;4.85;;;;;;;;;;4940471;28;20050;-78
2021/09/23 00:27:04;;;;;;;26.83;4.35;;;;;;;;;;4908024;28;20622;-78
2021/09/23 00:29:53;;;;;;;25.67;5.00;;;;;;;;;;4921401;28;20031;-78
2021/09/23 00:32:20;;;;;;;26.20;3.90;;;;;;;;;;4899911;28;20043;-78
2021/09/23 00:34:49;;;;;;;23.65;4.60;;;;;;;;;;4878846;28;20040;-78
2021/09/23 00:37:38;;;;;;;22.55;4.15;;;;;;;;;;4880659;28;20091;-78
2021/09/23 00:40:10;;;;;;;32.38;4.97;;;;;;;;;;4861025;29;20044;-78
2021/09/23 00:42:40;;;;;;;22.27;4.47;;;;;;;;;;4882928;29;20099;-78
2021/09/23 00:45:10;;;;;;;19.88;3.88;;;;;;;;;;4877120;29;20056;-77
2021/09/23 00:47:36;;;;;;;24.60;4.55;;;;;;;;;;4871015;28;20036;-79
2021/09/23 00:50:03;;;;;;;26.13;4.35;;;;;;;;;;4879242;29;20036;-78
2021/09/23 00:52:31;;;;;;;27.15;5.13;;;;;;;;;;4883942;29;20051;-77
2021/09/23 00:55:18;;;;;;;21.70;4.13;;;;;;;;;;4887938;29;20048;-78
2021/09/23 00:57:46;;;;;;;22.83;4.65;;;;;;;;;;4881691;29;20550;-79
2021/09/23 01:00:22;;;;;;;28.35;4.38;;;;;;;;;;4896533;29;20032;-81
2021/09/23 01:02:52;;;;;;;22.77;4.10;;;;;;;;;;4897213;29;20036;-78
2021/09/23 01:05:19;;;;;;;24.27;4.95;;;;;;;;;;4881278;29;20071;-77
2021/09/23 01:07:47;;;;;;;21.75;4.45;;;;;;;;;;4888118;28;20095;-79
2021/09/23 01:10:20;;;;;;;25.88;4.60;;;;;;;;;;4931090;28;20828;-79
2021/09/23 01:12:51;;;;;;;24.40;5.15;;;;;;;;;;4932677;28;20055;-79
2021/09/23 01:15:21;;;;;;;22.38;3.88;;;;;;;;;;4933077;28;20042;-78
2021/09/23 01:17:50;;;;;;;22.77;4.63;;;;;;;;;;4929919;28;20098;-78
2021/09/23 01:20:18;;;;;;;22.85;3.95;;;;;;;;;;4929638;28;20372;-78
2021/09/23 01:22:46;;;;;;;22.55;3.83;;;;;;;;;;4952847;28;20409;-77
2021/09/23 01:25:17;;;;;;;21.20;4.22;;;;;;;;;;4922747;28;20046;-75
2021/09/23 01:27:43;;;;;;;20.83;3.92;;;;;;;;;;4937632;28;20195;-77
2021/09/23 01:30:12;;;;;;;18.25;3.47;;;;;;;;;;4936096;28;20085;-78
2021/09/23 01:32:41;;;;;;;25.25;4.30;;;;;;;;;;4925069;28;20839;-77
2021/09/23 01:35:11;;;;;;;21.80;4.00;;;;;;;;;;4937693;28;20440;-78
2021/09/23 01:37:40;;;;;;;20.58;3.47;;;;;;;;;;4939210;28;20043;-78
2021/09/23 01:40:08;;;;;;;23.35;3.90;;;;;;;;;;4920678;28;20043;-78
2021/09/23 01:42:48;;;;;;;20.08;3.70;;;;;;;;;;4944583;28;20073;-77
2021/09/23 01:45:19;;;;;;;20.00;3.88;;;;;;;;;;4933711;28;20047;-78
2021/09/23 01:47:45;;;;;;;18.27;3.55;;;;;;;;;;4901151;29;20569;-77
2021/09/23 01:50:16;;;;;;;17.70;3.65;;;;;;;;;;4900114;29;20167;-76
2021/09/23 01:52:43;;;;;;;21.20;4.00;;;;;;;;;;4911855;28;20066;-78
2021/09/23 01:55:12;;;;;;;18.33;4.00;;;;;;;;;;4938303;28;20043;-77
2021/09/23 01:57:41;;;;;;;20.90;4.22;;;;;;;;;;4925306;28;20560;-76
2021/09/23 02:00:08;;;;;;;21.20;3.92;;;;;;;;;;4938907;28;20113;-78
2021/09/23 02:02:36;;;;;;;17.55;3.33;;;;;;;;;;4923537;28;20435;-78
2021/09/23 02:05:06;;;;;;;20.98;3.45;;;;;;;;;;4920288;28;20041;-79
2021/09/23 02:07:34;;;;;;;18.60;4.00;;;;;;;;;;4921123;28;20637;-78
2021/09/23 02:10:03;;;;;;;16.95;3.13;;;;;;;;;;4942896;28;20039;-79
2021/09/23 02:12:30;;;;;;;22.60;3.60;;;;;;;;;;4922812;28;20143;-77
2021/09/23 02:14:58;;;;;;;17.23;3.42;;;;;;;;;;4924634;28;20051;-79
2021/09/23 02:17:26;;;;;;;12.73;2.75;;;;;;;;;;4918419;28;20038;-77
2021/09/23 02:19:54;;;;;;;19.48;3.58;;;;;;;;;;4925314;28;20494;-77
2021/09/23 02:22:20;;;;;;;23.15;3.17;;;;;;;;;;4937467;28;20727;-80
2021/09/23 02:24:47;;;;;;;20.60;3.78;;;;;;;;;;4939801;28;20034;-77
2021/09/23 02:27:15;;;;;;;25.42;4.40;;;;;;;;;;4940630;28;20085;-79
2021/09/23 02:29:42;;;;;;;16.17;3.30;;;;;;;;;;4940688;28;20050;-77
2021/09/23 02:32:10;;;;;;;19.75;3.70;;;;;;;;;;4937551;28;20035;-77
2021/09/23 02:34:38;;;;;;;17.02;3.40;;;;;;;;;;4943838;28;21099;-79
2021/09/23 02:37:08;;;;;;;15.27;3.28;;;;;;;;;;4913000;28;20040;-77
2021/09/23 02:39:36;;;;;;;16.98;3.20;;;;;;;;;;4924584;28;20054;-78
2021/09/23 02:42:05;;;;;;;15.25;3.20;;;;;;;;;;4936295;28;20043;-78
2021/09/23 02:44:34;;;;;;;17.05;3.47;;;;;;;;;;4974766;28;20042;-78
2021/09/23 02:47:02;;;;;;;16.85;3.25;;;;;;;;;;4962624;28;20093;-78
2021/09/23 02:49:28;;;;;;;17.70;3.25;;;;;;;;;;4974233;28;20030;-78
2021/09/23 02:51:56;;;;;;;20.13;3.30;;;;;;;;;;4969290;28;20116;-78
2021/09/23 02:54:23;;;;;;;24.73;3.85;;;;;;;;;;4955114;28;20057;-78
2021/09/23 02:56:50;;;;;;;15.30;3.03;;;;;;;;;;4978042;28;20522;-78
2021/09/23 02:59:18;;;;;;;15.75;3.10;;;;;;;;;;4954174;28;20116;-78
2021/09/23 03:01:45;;;;;;;16.65;3.63;;;;;;;;;;4977465;28;20031;-77
2021/09/23 03:04:14;;;;;;;17.17;3.17;;;;;;;;;;4961378;28;20050;-77
2021/09/23 03:06:41;;;;;;;19.33;3.45;;;;;;;;;;4973241;28;20105;-76
2021/09/23 03:09:11;;;;;;;17.15;3.22;;;;;;;;;;4957620;28;20042;-77
2021/09/23 03:11:39;;;;;;;17.02;3.22;;;;;;;;;;4959282;28;20100;-77
2021/09/23 03:14:07;;;;;;;15.85;3.13;;;;;;;;;;4950779;28;20054;-79
2021/09/23 03:16:36;;;;;;;17.95;3.30;;;;;;;;;;4960135;28;20046;-79
2021/09/23 03:19:03;;;;;;;14.68;2.70;;;;;;;;;;4957405;28;20778;-78
2021/09/23 03:21:31;;;;;;;18.77;3.80;;;;;;;;;;4967000;28;20062;-78
2021/09/23 03:24:01;;;;;;;14.77;3.28;;;;;;;;;;4963093;28;20030;-77
2021/09/23 03:26:28;;;;;;;18.38;3.40;;;;;;;;;;4961942;28;20046;-78
2021/09/23 03:28:57;;;;;;;17.48;3.13;;;;;;;;;;4960285;28;20495;-78
2021/09/23 03:31:28;;;;;;;20.73;3.75;;;;;;;;;;4961129;28;20061;-78
2021/09/23 03:33:56;;;;;;;19.27;3.50;;;;;;;;;;4961052;28;20086;-78
2021/09/23 03:36:25;;;;;;;16.48;3.60;;;;;;;;;;4959443;28;20065;-79
2021/09/23 03:38:55;;;;;;;19.05;3.78;;;;;;;;;;4961901;28;20031;-78
2021/09/23 03:41:27;;;;;;;15.82;3.22;;;;;;;;;;4958951;28;21105;-77
2021/09/23 03:43:56;;;;;;;23.25;3.58;;;;;;;;;;4956708;28;20038;-77
2021/09/23 03:46:24;;;;;;;19.48;3.78;;;;;;;;;;4958345;28;20053;-79
2021/09/23 03:48:53;;;;;;;12.52;2.67;;;;;;;;;;4963805;28;20030;-78
2021/09/23 03:51:20;;;;;;;18.05;3.50;;;;;;;;;;4964371;28;20026;-78
2021/09/23 03:53:48;;;;;;;21.25;3.60;;;;;;;;;;4961480;28;20046;-78
2021/09/23 03:56:17;;;;;;;17.85;3.13;;;;;;;;;;4938079;28;20149;-78
2021/09/23 03:58:45;;;;;;;20.05;3.53;;;;;;;;;;4959839;28;20049;-78
2021/09/23 04:01:15;;;;;;;18.20;3.60;;;;;;;;;;4954318;28;20038;-78
2021/09/23 04:03:41;;;;;;;23.75;4.35;;;;;;;;;;4955842;28;20046;-79
2021/09/23 04:06:14;;;;;;;17.63;3.25;;;;;;;;;;4951352;28;20042;-79
2021/09/23 04:08:41;;;;;;;15.00;2.83;;;;;;;;;;4976121;28;20038;-80
2021/09/23 04:11:08;;;;;;;15.05;3.10;;;;;;;;;;4957435;28;20037;-78
2021/09/23 04:13:35;;;;;;;21.83;4.05;;;;;;;;;;4957221;28;20034;-77
2021/09/23 04:16:04;;;;;;;18.63;3.47;;;;;;;;;;4949048;28;20066;-78
2021/09/23 04:18:30;;;;;;;15.38;3.55;;;;;;;;;;4974322;28;20124;-77
2021/09/23 04:20:58;;;;;;;19.17;3.75;;;;;;;;;;4960044;28;20126;-78
2021/09/23 04:23:31;;;;;;;14.32;3.35;;;;;;;;;;4954215;28;20125;-78
2021/09/23 04:26:00;;;;;;;16.85;3.50;;;;;;;;;;4937491;28;20403;-78
2021/09/23 04:28:27;;;;;;;19.27;4.68;;;;;;;;;;4961276;28;20093;-78
2021/09/23 04:30:54;;;;;;;20.85;3.75;;;;;;;;;;4951627;28;20031;-78
2021/09/23 04:33:22;;;;;;;19.42;3.67;;;;;;;;;;4956792;28;20134;-78
2021/09/23 04:35:49;;;;;;;17.90;3.80;;;;;;;;;;4956021;28;20045;-77
2021/09/23 04:38:20;;;;;;;15.00;3.17;;;;;;;;;;4960729;28;20034;-80
2021/09/23 04:40:49;;;;;;;20.65;4.47;;;;;;;;;;4956526;28;20865;-79
2021/09/23 04:43:18;;;;;;;21.10;4.05;;;;;;;;;;4952629;28;20069;-79
2021/09/23 04:45:47;;;;;;;17.48;3.53;;;;;;;;;;4955671;28;20092;-79
2021/09/23 04:48:15;;;;;;;17.33;3.80;;;;;;;;;;4957758;28;20085;-79
2021/09/23 04:50:44;;;;;;;22.30;4.55;;;;;;;;;;4977180;28;20049;-79
2021/09/23 04:53:12;;;;;;;23.00;4.00;;;;;;;;;;4952848;28;20038;-79
2021/09/23 04:55:38;;;;;;;18.58;3.60;;;;;;;;;;4957718;28;20053;-76
2021/09/23 04:58:07;;;;;;;17.15;3.45;;;;;;;;;;4961440;28;20034;-77
2021/09/23 05:00:37;;;;;;;22.27;3.92;;;;;;;;;;4959542;28;20056;-78
2021/09/23 05:03:04;;;;;;;24.45;4.55;;;;;;;;;;4957110;28;20839;-78
2021/09/23 05:05:31;;;;;;;15.52;3.55;;;;;;;;;;4939367;28;20635;-77
2021/09/23 05:08:00;;;;;;;16.83;4.15;;;;;;;;;;4962633;28;20038;-78
2021/09/23 05:10:29;;;;;;;18.05;3.80;;;;;;;;;;4960202;28;20038;-78
2021/09/23 05:12:58;;;;;;;19.80;4.45;;;;;;;;;;4963117;28;20087;-78
2021/09/23 05:15:29;;;;;;;17.13;3.45;;;;;;;;;;4965568;28;20045;-78
2021/09/23 05:17:57;;;;;;;18.13;4.10;;;;;;;;;;4960999;28;20050;-78
2021/09/23 05:20:25;;;;;;;18.65;3.50;;;;;;;;;;4962953;28;20420;-78
2021/09/23 05:22:52;;;;;;;16.17;3.70;;;;;;;;;;4962871;28;20096;-78
2021/09/23 05:25:21;;;;;;;19.75;4.35;;;;;;;;;;4959725;28;20054;-78
2021/09/23 05:27:50;;;;;;;15.25;3.60;;;;;;;;;;4972558;28;20046;-77
2021/09/23 05:30:18;;;;;;;15.48;3.33;;;;;;;;;;4975451;28;20042;-78
2021/09/23 05:32:48;;;;;;;16.20;3.55;;;;;;;;;;4957190;28;20045;-78
2021/09/23 05:35:18;;;;;;;16.70;3.55;;;;;;;;;;4960680;28;20121;-78
2021/09/23 05:37:46;;;;;;;16.92;3.70;;;;;;;;;;4957245;28;20101;-79
2021/09/23 05:40:14;;;;;;;22.48;3.80;;;;;;;;;;4958386;28;20423;-78
2021/09/23 05:42:42;;;;;;;18.35;4.10;;;;;;;;;;4963087;28;20553;-79
2021/09/23 05:45:13;;;;;;;17.35;4.00;;;;;;;;;;4958618;28;20735;-79
2021/09/23 05:47:42;;;;;;;21.25;3.58;;;;;;;;;;4973384;28;20041;-77
2021/09/23 05:50:11;;;;;;;17.08;3.78;;;;;;;;;;4954231;28;20627;-78
2021/09/23 05:52:39;;;;;;;20.08;4.18;;;;;;;;;;4961747;28;20084;-78
2021/09/23 05:55:08;;;;;;;19.33;3.80;;;;;;;;;;4979983;28;20053;-78
2021/09/23 05:57:35;;;;;;;13.30;3.13;;;;;;;;;;4958096;28;20046;-78
2021/09/23 06:00:11;;;;;;;18.85;3.97;;;;;;;;;;4975820;28;20122;-80
2021/09/23 06:02:38;;;;;;;17.65;3.47;;;;;;;;;;4950867;28;20054;-78
2021/09/23 06:05:06;;;;;;;16.95;3.88;;;;;;;;;;4954718;28;20046;-80
2021/09/23 06:07:34;;;;;;;16.42;4.38;;;;;;;;;;4973388;28;20121;-80
2021/09/23 06:10:08;;;;;;;12.82;3.40;;;;;;;;;;4956141;28;20141;-80
2021/09/23 06:12:37;;;;;;;20.65;4.55;;;;;;;;;;4961408;28;20153;-81
2021/09/23 06:15:09;;;;;;;17.10;4.82;;;;;;;;;;4960573;28;20038;-81
2021/09/23 06:17:39;;;;;;;16.33;4.20;;;;;;;;;;4955427;28;20046;-79
2021/09/23 06:20:06;;;;;;;18.13;5.07;;;;;;;;;;4956371;28;20538;-79
2021/09/23 06:22:35;;;;;;;17.27;4.43;;;;;;;;;;4977084;28;20038;-79
2021/09/23 06:25:03;;;;;;;16.85;5.28;;;;;;;;;;4959548;28;20069;-79
2021/09/23 06:27:30;;;;;;;21.75;6.05;;;;;;;;;;4974529;28;20422;-80
2021/09/23 06:29:57;;;;;;;18.90;5.18;;;;;;;;;;4962241;28;20037;-79
2021/09/23 06:32:27;;;;;;;19.70;4.88;;;;;;;;;;4974941;28;20046;-80
2021/09/23 06:34:55;;;;;;;17.38;4.93;;;;;;;;;;4961711;28;20530;-80
2021/09/23 06:37:24;;;;;;;18.63;3.88;;;;;;;;;;4956264;28;20038;-78
2021/09/23 06:39:52;;;;;;;16.77;4.10;;;;;;;;;;4968357;28;20630;-78
2021/09/23 06:42:19;;;;;;;16.45;4.22;;;;;;;;;;4957991;28;20100;-78
2021/09/23 06:44:48;;;;;;;20.05;4.07;;;;;;;;;;4975522;28;20037;-78
2021/09/23 06:47:15;;;;;;;17.92;3.88;;;;;;;;;;4961486;28;20084;-78
2021/09/23 06:49:43;;;;;;;20.10;3.97;;;;;;;;;;4959939;28;20074;-80
2021/09/23 06:52:10;;;;;;;21.48;3.88;;;;;;;;;;4966147;28;20034;-79
2021/09/23 06:54:37;;;;;;;22.15;4.90;;;;;;;;;;4977483;28;20039;-78
2021/09/23 06:57:04;;;;;;;22.30;5.53;;;;;;;;;;4959544;28;20046;-80
2021/09/23 06:59:32;;;;;;;21.27;6.18;;;;;;;;;;4960517;28;20039;-78
2021/09/23 07:01:58;;;;;;;20.60;4.55;;;;;;;;;;4963714;28;20205;-79
2021/09/23 07:04:26;;;;;;;20.65;5.25;;;;;;;;;;4958873;28;20027;-78
2021/09/23 07:06:53;;;;;;;18.45;3.78;;;;;;;;;;4964659;28;20042;-78
2021/09/23 07:09:20;;;;;;;18.00;4.18;;;;;;;;;;4960214;28;20034;-78
2021/09/23 07:11:48;;;;;;;20.63;3.05;;;;;;;;;;4957669;28;20049;-78
2021/09/23 07:14:14;;;;;;;17.27;2.78;;;;;;;;;;4955076;28;20254;-78
2021/09/23 07:16:41;;;;;;;17.83;2.65;;;;;;;;;;4961468;28;20038;-78
2021/09/23 07:19:08;;;;;;;14.15;2.30;;;;;;;;;;4962168;28;20133;-77
2021/09/23 07:21:35;;;;;;;13.70;2.50;;;;;;;;;;4963566;28;20026;-77
2021/09/23 07:24:01;;;;;;;13.77;2.20;;;;;;;;;;4955745;28;20026;-78
2021/09/23 07:26:28;;;;;;;14.10;2.50;;;;;;;;;;4972378;28;20072;-77
2021/09/23 07:28:55;;;;;;;16.13;2.50;;;;;;;;;;4965383;28;20129;-78
2021/09/23 07:31:23;;;;;;;14.30;1.88;;;;;;;;;;4958159;28;22345;-78
2021/09/23 07:33:50;;;;;;;15.15;2.05;;;;;;;;;;4951285;28;20256;-78
2021/09/23 07:36:19;;;;;;;13.38;2.00;;;;;;;;;;4955447;28;20550;-78
2021/09/23 07:38:45;;;;;;;10.40;1.70;;;;;;;;;;4960703;28;20026;-77
2021/09/23 07:41:14;;;;;;;12.75;1.98;;;;;;;;;;4972696;28;20034;-77
2021/09/23 07:43:40;;;;;;;13.35;1.85;;;;;;;;;;4962040;28;20504;-78
2021/09/23 07:46:07;;;;;;;15.13;2.67;;;;;;;;;;4956248;28;20072;-77
2021/09/23 07:48:34;;;;;;;14.07;1.90;;;;;;;;;;4976156;28;20053;-78
2021/09/23 07:51:01;;;;;;;12.68;2.65;;;;;;;;;;4962932;28;20579;-77
2021/09/23 07:53:30;;;;;;;13.85;3.20;;;;;;;;;;4978257;28;20096;-78
2021/09/23 07:55:56;;;;;;;14.02;4.50;;;;;;;;;;4950866;28;20120;-78
2021/09/23 07:58:24;;;;;;;17.40;4.93;;;;;;;;;;4950441;28;20602;-77
2021/09/23 08:00:52;;;;;;;16.02;4.85;;;;;;;;;;4961812;28;20081;-77
2021/09/23 08:03:19;;;;;;;16.25;5.47;;;;;;;;;;4958947;28;20045;-79
2021/09/23 08:05:48;;;;;;;19.80;7.35;;;;;;;;;;4964954;28;20729;-78
2021/09/23 08:08:17;;;;;;;21.83;7.72;;;;;;;;;;4955957;28;20116;-80
2021/09/23 08:10:43;;;;;;;19.02;5.20;;;;;;;;;;4955504;28;20035;-79
2021/09/23 08:13:12;;;;;;;17.73;5.50;;;;;;;;;;4958010;28;20038;-79
2021/09/23 08:15:41;;;;;;;28.05;7.60;;;;;;;;;;4960901;28;20269;-79
2021/09/23 08:18:10;;;;;;;19.98;7.53;;;;;;;;;;4954833;28;20031;-80
2021/09/23 08:20:36;;;;;;;24.10;11.93;;;;;;;;;;4956899;28;20043;-80
2021/09/23 08:23:04;;;;;;;26.08;9.77;;;;;;;;;;4958031;28;20048;-80
2021/09/23 08:25:32;;;;;;;26.75;7.80;;;;;;;;;;4960897;28;20050;-80
2021/09/23 08:28:00;;;;;;;25.17;6.70;;;;;;;;;;4958547;28;20575;-80
2021/09/23 08:30:27;;;;;;;18.70;5.07;;;;;;;;;;4974318;28;20046;-80
2021/09/23 08:32:54;;;;;;;20.75;4.55;;;;;;;;;;4961353;28;20672;-80
2021/09/23 08:35:25;;;;;;;23.27;4.65;;;;;;;;;;4957837;28;20511;-80
2021/09/23 08:37:51;;;;;;;21.45;4.75;;;;;;;;;;4960769;28;20066;-80
2021/09/23 08:40:23;;;;;;;21.30;4.00;;;;;;;;;;4969291;28;20031;-79
2021/09/23 08:42:52;;;;;;;17.60;3.97;;;;;;;;;;4978374;28;20137;-79
2021/09/23 08:45:21;;;;;;;19.02;3.33;;;;;;;;;;4936732;28;20048;-80
2021/09/23 08:47:53;;;;;;;16.55;3.35;;;;;;;;;;4962025;28;20101;-79
2021/09/23 08:50:21;;;;;;;13.93;2.75;;;;;;;;;;4955418;28;20108;-80
2021/09/23 08:52:50;;;;;;;12.15;2.67;;;;;;;;;;4960138;28;20033;-78
2021/09/23 08:55:22;;;;;;;16.05;2.72;;;;;;;;;;4953510;28;20538;-79
2021/09/23 08:57:51;;;;;;;11.57;2.03;;;;;;;;;;4950726;28;20422;-79
2021/09/23 09:00:22;;;;;;;12.75;2.40;;;;;;;;;;4955506;28;20031;-79
2021/09/23 09:03:00;;;;;;;14.70;2.95;;;;;;;;;;4962329;28;20122;-79
2021/09/23 09:05:28;;;;;;;12.20;2.53;;;;;;;;;;4952133;28;20069;-79
2021/09/23 09:08:05;;;;;;;13.57;2.92;;;;;;;;;;4941465;28;20034;-79
2021/09/23 09:10:37;;;;;;;12.43;2.58;;;;;;;;;;4962131;28;20519;-80
2021/09/23 09:13:05;;;;;;;16.35;5.15;;;;;;;;;;4961317;28;20632;-80
2021/09/23 09:15:40;;;;;;;17.65;5.28;;;;;;;;;;4958806;28;20389;-79
2021/09/23 09:18:23;;;;;;;15.00;4.07;;;;;;;;;;4955307;28;20523;-79
2021/09/23 09:21:02;;;;;;;17.05;3.80;;;;;;;;;;4959596;28;20179;-79
2021/09/23 09:23:53;;;;;;;15.32;3.20;;;;;;;;;;4965583;28;20039;-79
2021/09/23 09:26:22;;;;;;;18.23;3.55;;;;;;;;;;4952662;28;20085;-79
2021/09/23 09:28:52;;;;;;;14.85;3.40;;;;;;;;;;4954480;28;20042;-78
2021/09/23 09:31:22;;;;;;;18.20;3.72;;;;;;;;;;4958169;28;20813;-78
2021/09/23 09:33:52;;;;;;;14.73;2.90;;;;;;;;;;4960067;28;20073;-79
2021/09/23 09:36:30;;;;;;;14.07;2.75;;;;;;;;;;4953567;28;20081;-78
2021/09/23 09:38:58;;;;;;;13.32;2.95;;;;;;;;;;4964890;28;20597;-78
2021/09/23 09:41:28;;;;;;;16.40;2.72;;;;;;;;;;4968066;28;20038;-79
2021/09/23 09:43:57;;;;;;;15.23;3.08;;;;;;;;;;4967135;28;20031;-79
2021/09/23 09:46:36;;;;;;;15.25;2.88;;;;;;;;;;4942985;28;20046;-79
2021/09/23 09:49:03;;;;;;;15.93;3.08;;;;;;;;;;4958374;28;20053;-79
2021/09/23 09:51:46;;;;;;;16.63;2.97;;;;;;;;;;4964996;28;20559;-79
2021/09/23 09:54:17;;;;;;;15.02;2.45;;;;;;;;;;4945288;28;20054;-79
2021/09/23 09:56:50;;;;;;;12.52;2.92;;;;;;;;;;4964092;28;20373;-79
2021/09/23 09:59:19;;;;;;;15.18;2.72;;;;;;;;;;4928962;28;20657;-79
2021/09/23 10:01:51;;;;;;;11.77;2.60;;;;;;;;;;4962548;28;20499;-80
2021/09/23 10:04:19;;;;;;;13.57;2.97;;;;;;;;;;4955763;28;20038;-79
2021/09/23 10:06:48;;;;;;;13.75;2.65;;;;;;;;;;4981258;28;20031;-79
2021/09/23 10:09:17;;;;;;;15.63;2.95;;;;;;;;;;4962482;28;20043;-79
2021/09/23 10:11:49;;;;;;;13.30;2.90;;;;;;;;;;4944453;28;20031;-79
2021/09/23 10:14:19;;;;;;;14.48;3.55;;;;;;;;;;4967315;28;20773;-80
2021/09/23 10:16:48;;;;;;;13.23;3.20;;;;;;;;;;4962391;28;20054;-80
2021/09/23 10:19:19;;;;;;;16.00;3.00;;;;;;;;;;4974832;28;20834;-79
2021/09/23 10:21:46;;;;;;;13.43;2.40;;;;;;;;;;4962475;28;20034;-79
2021/09/23 10:24:14;;;;;;;16.80;2.90;;;;;;;;;;4961235;28;20567;-80
2021/09/23 10:26:42;;;;;;;14.25;2.58;;;;;;;;;;4959932;28;20109;-80
2021/09/23 10:29:13;;;;;;;12.50;3.25;;;;;;;;;;4949824;28;20101;-80
2021/09/23 10:31:44;;;;;;;13.15;3.30;;;;;;;;;;4964759;28;20043;-80
2021/09/23 10:34:13;;;;;;;15.10;3.58;;;;;;;;;;4975721;28;20034;-80
2021/09/23 10:36:46;;;;;;;18.48;3.95;;;;;;;;;;4965106;28;20036;-80
2021/09/23 10:39:22;;;;;;;13.40;3.33;;;;;;;;;;4956937;28;20050;-79
2021/09/23 10:41:51;;;;;;;17.08;4.13;;;;;;;;;;4963619;28;20096;-79
2021/09/23 10:44:19;;;;;;;19.58;3.72;;;;;;;;;;4961111;28;20652;-81
2021/09/23 10:46:47;;;;;;;13.27;3.63;;;;;;;;;;4963655;28;20074;-81
2021/09/23 10:49:14;;;;;;;15.77;3.35;;;;;;;;;;4957220;28;20100;-81
2021/09/23 10:51:41;;;;;;;14.23;3.22;;;;;;;;;;4978862;28;20062;-79
2021/09/23 10:54:12;;;;;;;11.95;3.10;;;;;;;;;;4961625;28;20042;-79
2021/09/23 10:56:42;;;;;;;12.32;2.75;;;;;;;;;;4963258;28;20043;-79
2021/09/23 10:59:12;;;;;;;15.73;3.05;;;;;;;;;;4956253;28;20034;-79
2021/09/23 11:01:46;;;;;;;12.30;2.97;;;;;;;;;;4975192;28;20062;-80
2021/09/23 11:04:16;;;;;;;13.00;3.20;;;;;;;;;;4956175;28;20093;-79
2021/09/23 11:06:43;;;;;;;13.45;3.15;;;;;;;;;;4960540;28;20176;-79
2021/09/23 11:09:21;;;;;;;13.98;2.88;;;;;;;;;;4951105;28;20377;-79
2021/09/23 11:11:52;;;;;;;13.15;2.90;;;;;;;;;;4962806;28;20137;-79
2021/09/23 11:14:23;;;;;;;12.68;3.05;;;;;;;;;;4960822;28;20174;-79
2021/09/23 11:16:52;;;;;;;13.68;2.75;;;;;;;;;;4958100;28;20054;-79
2021/09/23 11:19:19;;;;;;;14.43;2.65;;;;;;;;;;4973745;28;20829;-79
2021/09/23 11:21:48;;;;;;;12.43;2.83;;;;;;;;;;4961745;28;20027;-79
2021/09/23 11:24:15;;;;;;;10.48;2.60;;;;;;;;;;4962723;28;20051;-79
2021/09/23 11:26:43;;;;;;;14.02;2.80;;;;;;;;;;4963235;28;20049;-80
2021/09/23 11:29:10;;;;;;;14.57;2.88;;;;;;;;;;4971756;28;20770;-79
2021/09/23 11:31:51;;;;;;;14.32;4.05;;;;;;;;;;4961129;28;20065;-78
2021/09/23 11:34:29;;;;;;;8.90;1.90;;;;;;;;;;4954023;28;20046;-78
2021/09/23 11:36:56;;;;;;;11.88;2.30;;;;;;;;;;4953772;28;20041;-79
2021/09/23 11:39:24;;;;;;;11.68;2.38;;;;;;;;;;4960828;28;20076;-79
2021/09/23 11:42:11;;;;;;;11.18;2.20;;;;;;;;;;4957832;28;20562;-79
2021/09/23 11:44:42;;;;;;;11.75;2.08;;;;;;;;;;4956709;28;20042;-79
2021/09/23 11:47:15;;;;;;;10.68;2.22;;;;;;;;;;4959223;28;20290;-79
2021/09/23 11:49:45;;;;;;;11.13;2.30;;;;;;;;;;4961854;28;20512;-78
2021/09/23 11:52:14;;;;;;;13.10;2.42;;;;;;;;;;4960976;28;20045;-80
2021/09/23 11:54:42;;;;;;;10.80;2.15;;;;;;;;;;4952013;28;20042;-78
2021/09/23 11:57:48;;;;;;;9.55;2.15;;;;;;;;;;4970715;28;20045;-79
2021/09/23 12:00:15;;;;;;;10.02;1.95;;;;;;;;;;4955710;28;20675;-79
2021/09/23 12:02:53;;;;;;;11.65;2.63;;;;;;;;;;4960506;28;20027;-79
2021/09/23 12:05:26;;;;;;;10.32;2.10;;;;;;;;;;4957687;28;20038;-79
2021/09/23 12:07:54;;;;;;;10.35;2.30;;;;;;;;;;4959237;28;20038;-79
2021/09/23 12:10:22;;;;;;;12.18;2.40;;;;;;;;;;4959855;28;22171;-79
2021/09/23 12:13:03;;;;;;;11.57;2.42;;;;;;;;;;4964771;28;20064;-79
2021/09/23 12:15:31;;;;;;;9.63;2.13;;;;;;;;;;4963399;28;20030;-80
2021/09/23 12:18:03;;;;;;;10.77;2.13;;;;;;;;;;4951671;28;20046;-79
2021/09/23 12:20:50;;;;;;;10.88;2.95;;;;;;;;;;4960634;28;20042;-78
2021/09/23 12:23:36;;;;;;;11.27;2.50;;;;;;;;;;4961667;28;20171;-78
2021/09/23 12:26:11;;;;;;;12.98;1.92;;;;;;;;;;4971169;28;20034;-79
2021/09/23 12:28:41;;;;;;;11.93;2.17;;;;;;;;;;4967643;28;20566;-79
2021/09/23 12:31:11;;;;;;;10.57;2.45;;;;;;;;;;4936355;28;20033;-79
2021/09/23 12:33:47;;;;;;;11.40;2.60;;;;;;;;;;4970389;28;20039;-78
2021/09/23 12:36:16;;;;;;;11.98;2.20;;;;;;;;;;4960084;28;20034;-79
2021/09/23 12:38:50;;;;;;;11.70;2.20;;;;;;;;;;4963642;28;20121;-79
2021/09/23 12:41:24;;;;;;;10.30;2.05;;;;;;;;;;4938359;28;20050;-79
2021/09/23 12:44:03;;;;;;;12.50;2.30;;;;;;;;;;4948904;28;20034;-79
2021/09/23 12:46:31;;;;;;;10.40;2.28;;;;;;;;;;4973101;28;21053;-79
2021/09/23 12:49:18;;;;;;;9.60;1.83;;;;;;;;;;4953016;28;20052;-79
2021/09/23 12:51:51;;;;;;;11.50;2.30;;;;;;;;;;4958908;28;20711;-80
2021/09/23 12:54:25;;;;;;;11.45;2.15;;;;;;;;;;4955714;28;20050;-80
2021/09/23 12:57:07;;;;;;;11.35;2.40;;;;;;;;;;4958345;28;20043;-78
2021/09/23 12:59:35;;;;;;;9.52;1.90;;;;;;;;;;4962933;28;20070;-78
2021/09/23 13:02:15;;;;;;;13.90;2.35;;;;;;;;;;4926610;28;20073;-78
2021/09/23 13:04:41;;;;;;;9.93;2.10;;;;;;;;;;4963288;28;20026;-78
2021/09/23 13:07:28;;;;;;;8.35;1.95;;;;;;;;;;4974423;28;20096;-79
2021/09/23 13:10:04;;;;;;;9.05;2.10;;;;;;;;;;4959450;28;20058;-79
2021/09/23 13:12:48;;;;;;;11.43;2.40;;;;;;;;;;4961294;28;20038;-79
2021/09/23 13:15:19;;;;;;;11.15;2.00;;;;;;;;;;4957045;28;20070;-79
2021/09/23 13:18:04;;;;;;;12.27;2.30;;;;;;;;;;4960045;28;20034;-80
2021/09/23 13:20:33;;;;;;;12.10;2.42;;;;;;;;;;4965289;28;20480;-80
2021/09/23 13:23:03;;;;;;;9.95;2.13;;;;;;;;;;4979039;28;20412;-78
2021/09/23 13:25:30;;;;;;;9.85;2.08;;;;;;;;;;4964969;28;20073;-80
2021/09/23 13:27:58;;;;;;;9.60;1.90;;;;;;;;;;4966029;28;20038;-79
2021/09/23 13:30:26;;;;;;;10.23;1.80;;;;;;;;;;4964848;28;20117;-79
2021/09/23 13:32:56;;;;;;;10.68;2.30;;;;;;;;;;4958724;28;20125;-79
2021/09/23 13:35:24;;;;;;;12.98;2.42;;;;;;;;;;4961666;28;20046;-80
2021/09/23 13:37:52;;;;;;;11.73;2.60;;;;;;;;;;4964256;28;20097;-80
2021/09/23 13:40:20;;;;;;;13.20;2.05;;;;;;;;;;4962886;28;20132;-81
2021/09/23 13:42:48;;;;;;;13.27;2.33;;;;;;;;;;4965465;28;20077;-80
2021/09/23 13:45:26;;;;;;;10.25;2.00;;;;;;;;;;4958954;28;20443;-79
2021/09/23 13:47:57;;;;;;;13.20;2.17;;;;;;;;;;4963830;28;20034;-79
2021/09/23 13:50:29;;;;;;;14.15;2.40;;;;;;;;;;4958105;28;20042;-79
2021/09/23 13:52:55;;;;;;;12.23;2.50;;;;;;;;;;4960794;28;20041;-79
2021/09/23 13:55:25;;;;;;;11.43;2.25;;;;;;;;;;4958460;28;20043;-79
2021/09/23 13:57:54;;;;;;;11.10;2.13;;;;;;;;;;4964769;28;20380;-79
2021/09/23 14:00:23;;;;;;;10.43;2.20;;;;;;;;;;4980770;28;25476;-80
2021/09/23 14:02:50;;;;;;;12.02;2.53;;;;;;;;;;4985054;28;20035;-80
2021/09/23 14:05:20;;;;;;;8.68;2.08;;;;;;;;;;4961404;28;20075;-79
2021/09/23 14:07:49;;;;;;;7.20;1.60;;;;;;;;;;4962065;28;20031;-80
2021/09/23 14:10:20;;;;;;;10.35;1.95;;;;;;;;;;4962731;28;20038;-80
2021/09/23 14:12:50;;;;;;;10.70;2.50;;;;;;;;;;4962893;28;20481;-80
2021/09/23 14:15:21;;;;;;;7.82;1.88;;;;;;;;;;4960376;28;22349;-79
2021/09/23 14:17:49;;;;;;;11.93;2.65;;;;;;;;;;4939011;28;20096;-78
2021/09/23 14:20:17;;;;;;;9.20;2.00;;;;;;;;;;4956457;28;20154;-80
2021/09/23 14:22:45;;;;;;;10.50;1.95;;;;;;;;;;4963704;28;20061;-80
2021/09/23 14:25:17;;;;;;;12.18;2.10;;;;;;;;;;4956836;28;20042;-80
2021/09/23 14:27:44;;;;;;;10.00;2.33;;;;;;;;;;4962497;28;20027;-79
2021/09/23 14:30:13;;;;;;;10.20;2.58;;;;;;;;;;4955898;28;20047;-80
2021/09/23 14:32:40;;;;;;;9.18;2.10;;;;;;;;;;4956753;28;20030;-79
2021/09/23 14:35:13;;;;;;;10.05;2.28;;;;;;;;;;4955876;28;20034;-79
2021/09/23 14:37:39;;;;;;;8.50;1.95;;;;;;;;;;4919583;28;20042;-79
2021/09/23 14:40:13;;;;;;;13.68;2.55;;;;;;;;;;4939252;28;20508;-80
2021/09/23 14:42:43;;;;;;;10.93;2.45;;;;;;;;;;4924025;28;20117;-80
2021/09/23 14:45:14;;;;;;;12.43;2.50;;;;;;;;;;4939305;28;20055;-80
2021/09/23 14:47:44;;;;;;;12.60;3.00;;;;;;;;;;4942372;28;20492;-80